Time;durP1;ratioP1;P1;durP2;ratioP2;P2;SDS_P1;SDS_P2;PMS_P1;PMS_P2;Temp;Humidity;BMP_temperature;BMP_pressure;BME280_temperature;BME280_humidity;BME280_pressure;Samples;Min_cycle;Max_cycle;Signal;HPM_P1;HPM_P2
2021/01/31 00:00:43;;;;;;;19.23;7.03;;;-2.20;99.90;;;;;;4985451;28;20033;-82
2021/01/31 00:03:21;;;;;;;16.20;7.10;;;-2.20;99.90;;;;;;5004248;28;20061;-82
2021/01/31 00:05:48;;;;;;;18.13;6.93;;;-2.30;99.90;;;;;;4969032;28;20057;-82
2021/01/31 00:08:16;;;;;;;18.60;7.50;;;-2.20;99.90;;;;;;4971584;28;20050;-83
2021/01/31 00:10:42;;;;;;;17.55;7.20;;;-2.30;99.90;;;;;;4985230;28;20027;-82
2021/01/31 00:13:09;;;;;;;19.35;7.10;;;-2.30;99.90;;;;;;4987720;28;20066;-83
2021/01/31 00:15:42;;;;;;;15.65;6.07;;;-2.30;99.90;;;;;;4973363;28;20114;-82
2021/01/31 00:18:09;;;;;;;15.10;6.05;;;-2.30;99.90;;;;;;4982326;28;20037;-83
2021/01/31 00:20:36;;;;;;;13.65;6.18;;;-2.40;99.90;;;;;;4984988;28;20033;-83
2021/01/31 00:23:04;;;;;;;14.73;6.18;;;-2.40;99.90;;;;;;5004129;28;20043;-83
2021/01/31 00:25:30;;;;;;;17.73;7.18;;;-2.40;99.90;;;;;;4988284;28;20372;-83
2021/01/31 00:27:56;;;;;;;17.23;6.35;;;-2.30;99.90;;;;;;4991255;28;20038;-83
2021/01/31 00:30:25;;;;;;;18.88;7.88;;;-2.40;99.90;;;;;;4975442;28;20057;-83
2021/01/31 00:32:52;;;;;;;16.13;6.50;;;-2.40;99.90;;;;;;4991343;28;20084;-83
2021/01/31 00:35:20;;;;;;;15.18;5.38;;;-2.50;99.90;;;;;;4972427;28;20026;-83
2021/01/31 00:37:46;;;;;;;14.68;6.13;;;-2.40;99.90;;;;;;4975086;28;20034;-83
2021/01/31 00:40:13;;;;;;;16.05;6.47;;;-2.50;99.90;;;;;;4988714;28;20022;-83
2021/01/31 00:42:38;;;;;;;17.80;7.13;;;-2.50;99.90;;;;;;4991258;28;20040;-83
2021/01/31 00:45:08;;;;;;;18.10;7.38;;;-2.60;99.90;;;;;;4975141;28;20057;-83
2021/01/31 00:47:37;;;;;;;16.80;6.72;;;-2.50;99.90;;;;;;4988512;28;20034;-83
2021/01/31 00:50:04;;;;;;;17.20;6.75;;;-2.60;99.90;;;;;;5004962;28;20125;-83
2021/01/31 00:52:30;;;;;;;15.55;6.63;;;-2.60;99.90;;;;;;4988333;28;20113;-83
2021/01/31 00:54:56;;;;;;;16.83;6.93;;;-2.60;99.90;;;;;;4974849;28;20029;-82
2021/01/31 00:57:22;;;;;;;15.95;6.93;;;-2.60;99.90;;;;;;4975092;28;20497;-83
2021/01/31 00:59:47;;;;;;;16.20;6.95;;;-2.60;99.90;;;;;;4988384;28;20046;-83
2021/01/31 01:02:18;;;;;;;16.65;7.72;;;-2.60;99.90;;;;;;4975087;28;20019;-83
2021/01/31 01:04:45;;;;;;;17.75;7.07;;;-2.60;99.90;;;;;;4987985;28;20027;-83
2021/01/31 01:07:11;;;;;;;16.40;6.60;;;-2.70;99.90;;;;;;4987895;28;20046;-82
2021/01/31 01:09:37;;;;;;;18.33;6.90;;;-2.70;99.90;;;;;;5008254;28;20022;-83
2021/01/31 01:12:03;;;;;;;12.82;4.25;;;-2.70;99.90;;;;;;4990822;28;20038;-82
2021/01/31 01:14:30;;;;;;;16.23;7.43;;;-2.70;99.90;;;;;;4981905;28;20505;-83
2021/01/31 01:16:58;;;;;;;17.35;6.80;;;-2.80;99.90;;;;;;5005313;28;20026;-83
2021/01/31 01:19:24;;;;;;;18.67;7.05;;;-2.80;99.90;;;;;;4974656;28;20018;-83
2021/01/31 01:21:49;;;;;;;15.75;5.75;;;-2.80;99.90;;;;;;5006843;28;20073;-83
2021/01/31 01:24:15;;;;;;;17.95;7.78;;;-2.80;99.90;;;;;;5006805;28;20026;-83
2021/01/31 01:26:40;;;;;;;14.88;6.32;;;-2.80;99.90;;;;;;4974360;28;20027;-83
2021/01/31 01:29:06;;;;;;;20.08;7.50;;;-2.90;99.90;;;;;;4990552;28;20054;-83
2021/01/31 01:31:32;;;;;;;17.67;6.68;;;-2.90;99.90;;;;;;4990361;28;20065;-83
2021/01/31 01:33:57;;;;;;;15.35;6.60;;;-2.90;99.90;;;;;;5006707;28;20106;-83
2021/01/31 01:36:23;;;;;;;14.23;5.45;;;-2.90;99.90;;;;;;4973977;28;20038;-83
2021/01/31 01:38:49;;;;;;;18.23;7.63;;;-2.90;99.90;;;;;;4989722;28;20028;-83
2021/01/31 01:41:14;;;;;;;17.20;6.90;;;-2.90;99.90;;;;;;4984187;28;20031;-83
2021/01/31 01:43:41;;;;;;;15.48;6.05;;;-3.00;99.90;;;;;;4995192;28;20061;-83
2021/01/31 01:46:19;;;;;;;17.10;7.75;;;-3.00;99.90;;;;;;4987241;28;20027;-83
2021/01/31 01:48:49;;;;;;;15.07;5.97;;;-3.00;99.90;;;;;;4972344;28;20498;-83
2021/01/31 01:51:17;;;;;;;16.48;6.18;;;-3.10;99.90;;;;;;4981195;28;20050;-83
2021/01/31 01:53:44;;;;;;;17.48;6.60;;;-3.10;99.90;;;;;;4997621;28;20045;-83
2021/01/31 01:56:25;;;;;;;14.70;5.18;;;-3.10;99.90;;;;;;5006115;28;20026;-83
2021/01/31 01:58:55;;;;;;;13.85;5.88;;;-3.10;99.90;;;;;;4987215;28;20096;-83
2021/01/31 02:01:21;;;;;;;15.93;5.95;;;-3.20;99.90;;;;;;4989904;28;20037;-83
2021/01/31 02:03:48;;;;;;;15.15;5.82;;;-3.20;99.90;;;;;;4989851;28;20053;-82
2021/01/31 02:06:19;;;;;;;17.65;6.45;;;-3.20;99.90;;;;;;4996134;23;20006;-83
2021/01/31 02:08:45;;;;;;;19.10;7.60;;;-3.20;99.90;;;;;;4987538;28;20042;-82
2021/01/31 02:11:13;;;;;;;20.40;7.13;;;-3.30;99.90;;;;;;5006257;28;20042;-82
2021/01/31 02:13:42;;;;;;;19.00;6.65;;;-3.20;99.90;;;;;;5006401;28;20057;-83
2021/01/31 02:16:15;;;;;;;15.80;5.55;;;-3.30;99.90;;;;;;4972335;28;20026;-82
2021/01/31 02:18:54;;;;;;;17.92;6.57;;;-3.30;99.90;;;;;;4987258;28;20030;-83
2021/01/31 02:21:50;;;;;;;13.00;5.05;;;-3.30;99.90;;;;;;5004862;28;20098;-83
2021/01/31 02:24:38;;;;;;;17.17;6.32;;;-3.40;99.90;;;;;;4988874;28;20026;-83
2021/01/31 02:27:28;;;;;;;14.02;4.95;;;-3.40;99.90;;;;;;4987450;28;20050;-83
2021/01/31 02:30:12;;;;;;;;;;;-3.40;99.90;;;;;;5003263;28;20038;-83
2021/01/31 02:32:59;;;;;;;16.15;5.30;;;-3.40;99.90;;;;;;4987979;28;19910;-83
2021/01/31 02:35:29;;;;;;;14.07;4.57;;;-3.40;99.90;;;;;;5006559;28;20065;-84
2021/01/31 02:38:00;;;;;;;16.52;6.28;;;-3.60;99.90;;;;;;4965364;28;20037;-83
2021/01/31 02:40:38;;;;;;;19.23;6.53;;;-3.50;99.90;;;;;;4987875;28;20402;-83
2021/01/31 02:43:34;;;;;;;16.40;5.72;;;-3.50;99.90;;;;;;4983524;28;20035;-84
2021/01/31 02:46:07;;;;;;;17.50;6.38;;;-3.50;99.90;;;;;;5004004;28;20030;-84
2021/01/31 02:48:52;;;;;;;17.70;6.00;;;-3.50;99.90;;;;;;4973090;28;20034;-83
2021/01/31 02:51:25;;;;;;;18.15;7.28;;;-3.50;99.90;;;;;;4987660;28;20045;-83
2021/01/31 02:54:08;;;;;;;17.42;7.15;;;-3.50;99.90;;;;;;4970838;28;20108;-83
2021/01/31 02:57:04;;;;;;;17.40;6.80;;;-3.50;99.90;;;;;;5002812;28;20419;-83
2021/01/31 02:59:41;;;;;;;16.38;5.80;;;-3.60;99.90;;;;;;4987186;28;20057;-83
2021/01/31 03:02:18;;;;;;;19.30;7.43;;;-3.50;99.90;;;;;;4986403;28;20034;-83
2021/01/31 03:05:36;;;;;;;18.48;6.72;;;-3.50;99.90;;;;;;4983443;28;20030;-83
2021/01/31 03:08:22;;;;;;;18.83;6.72;;;-3.50;99.90;;;;;;4914580;29;20056;-83
2021/01/31 03:11:08;;;;;;;19.02;6.53;;;-3.50;99.90;;;;;;4910224;29;20032;-83
2021/01/31 03:13:59;;;;;;;15.88;6.15;;;-3.50;99.90;;;;;;4925900;29;20052;-83
2021/01/31 03:16:37;;;;;;;17.30;5.95;;;-3.50;99.90;;;;;;4924982;29;20100;-83
2021/01/31 03:19:15;;;;;;;19.10;7.45;;;-3.60;99.90;;;;;;4910665;29;20041;-83
2021/01/31 03:21:46;;;;;;;20.10;7.30;;;-3.60;99.90;;;;;;4910912;29;20059;-83
2021/01/31 03:24:16;;;;;;;16.95;7.07;;;-3.60;99.90;;;;;;4895469;29;20023;-83
2021/01/31 03:26:51;;;;;;;19.60;7.90;;;-3.70;99.90;;;;;;4895180;29;20032;-83
2021/01/31 03:29:17;;;;;;;14.52;5.40;;;-3.60;99.90;;;;;;4905486;29;20051;-84
2021/01/31 03:31:48;;;;;;;21.75;7.30;;;-3.70;99.90;;;;;;4926722;29;20039;-83
2021/01/31 03:34:20;;;;;;;18.67;6.82;;;-3.60;99.90;;;;;;4910980;29;20084;-82
2021/01/31 03:36:51;;;;;;;18.38;6.72;;;-3.70;99.90;;;;;;4910591;29;20024;-84
2021/01/31 03:39:18;;;;;;;17.05;6.50;;;-3.70;99.90;;;;;;4926654;29;21248;-84
2021/01/31 03:41:44;;;;;;;13.65;5.57;;;-3.70;99.90;;;;;;4934048;28;20085;-83
2021/01/31 03:44:10;;;;;;;18.63;7.27;;;-3.70;99.90;;;;;;4966673;28;20030;-83
2021/01/31 03:46:42;;;;;;;18.13;7.07;;;-3.70;99.90;;;;;;4982962;28;20537;-83
2021/01/31 03:49:22;;;;;;;17.73;7.07;;;-3.70;99.90;;;;;;4972296;28;20034;-83
2021/01/31 03:51:48;;;;;;;20.65;8.13;;;-3.70;99.90;;;;;;4988833;28;20030;-83
2021/01/31 03:54:14;;;;;;;19.40;7.63;;;-3.70;99.90;;;;;;4972253;28;20120;-83
2021/01/31 03:56:45;;;;;;;22.90;8.85;;;-3.80;99.90;;;;;;4988447;28;20030;-83
2021/01/31 03:59:17;;;;;;;18.30;6.97;;;-3.70;99.90;;;;;;5004541;28;20031;-84
2021/01/31 04:01:43;;;;;;;18.90;7.38;;;-3.80;99.90;;;;;;5006126;28;20041;-83
2021/01/31 04:04:26;;;;;;;19.67;7.00;;;-3.70;99.90;;;;;;4976358;28;20038;-83
2021/01/31 04:06:57;;;;;;;19.33;7.40;;;-3.80;99.90;;;;;;4989029;28;20050;-83
2021/01/31 04:09:23;;;;;;;24.30;9.33;;;-3.80;99.90;;;;;;5010313;28;20316;-83
2021/01/31 04:12:01;;;;;;;20.65;7.93;;;-3.80;99.90;;;;;;4975974;28;20041;-83
2021/01/31 04:14:40;;;;;;;16.92;6.78;;;-3.80;99.90;;;;;;4989449;28;20026;-82
2021/01/31 04:17:06;;;;;;;23.57;8.67;;;-3.80;99.90;;;;;;4974467;28;20121;-83
2021/01/31 04:19:32;;;;;;;19.73;8.30;;;-3.80;99.90;;;;;;4975870;28;20045;-83
2021/01/31 04:21:57;;;;;;;21.47;7.93;;;-3.80;99.90;;;;;;4991938;28;20034;-83
2021/01/31 04:24:23;;;;;;;19.27;7.43;;;-3.80;99.90;;;;;;5008070;28;20022;-83
2021/01/31 04:26:49;;;;;;;21.20;8.17;;;-3.90;99.90;;;;;;5008151;28;20072;-83
2021/01/31 04:29:14;;;;;;;22.30;8.37;;;-3.80;99.90;;;;;;4975602;28;20033;-83
2021/01/31 04:31:40;;;;;;;19.98;7.80;;;-3.80;99.90;;;;;;4989048;28;20108;-82
2021/01/31 04:34:06;;;;;;;21.17;7.90;;;-3.90;99.90;;;;;;4989094;28;20053;-83
2021/01/31 04:36:31;;;;;;;19.80;7.17;;;-3.90;99.90;;;;;;4972681;28;20038;-83
2021/01/31 04:38:57;;;;;;;20.87;8.53;;;-3.90;99.90;;;;;;4988962;28;20137;-83
2021/01/31 04:41:36;;;;;;;19.67;7.70;;;-3.90;99.90;;;;;;4991544;28;20042;-83
2021/01/31 04:44:04;;;;;;;18.93;7.17;;;-3.90;99.90;;;;;;4974483;28;20042;-83
2021/01/31 04:46:46;;;;;;;21.58;7.00;;;-3.90;99.90;;;;;;4988450;28;20543;-84
2021/01/31 04:50:01;;;;;;;17.58;6.43;;;-3.90;99.90;;;;;;4990471;28;20049;-82
2021/01/31 04:52:38;;;;;;;19.67;8.40;;;-4.00;99.90;;;;;;4931969;28;20075;-83
2021/01/31 04:55:19;;;;;;;19.77;7.93;;;-3.90;99.90;;;;;;4973874;28;20048;-83
2021/01/31 04:58:14;;;;;;;21.57;8.80;;;-3.90;99.90;;;;;;4991180;28;20034;-83
2021/01/31 05:00:50;;;;;;;20.20;7.40;;;-4.00;99.90;;;;;;4977598;28;20089;-83
2021/01/31 05:03:17;;;;;;;22.73;8.20;;;-4.00;99.90;;;;;;4973009;28;20052;-82
2021/01/31 05:05:56;;;;;;;18.23;7.67;;;-4.00;99.90;;;;;;5007068;28;20053;-83
2021/01/31 05:08:27;;;;;;;24.20;8.07;;;-4.00;99.90;;;;;;4989571;28;20042;-84
2021/01/31 05:11:11;;;;;;;18.27;7.30;;;-4.00;99.90;;;;;;5007154;28;20026;-83
2021/01/31 05:13:54;;;;;;;23.55;8.52;;;-4.00;99.90;;;;;;4995046;28;20026;-83
2021/01/31 05:16:21;;;;;;;19.53;6.60;;;-4.00;99.90;;;;;;4993828;28;20046;-83
2021/01/31 05:18:54;;;;;;;21.03;7.30;;;-4.00;99.90;;;;;;4982143;28;20399;-83
2021/01/31 05:21:24;;;;;;;19.08;7.90;;;-4.00;99.90;;;;;;4982518;28;20030;-82
2021/01/31 05:24:11;;;;;;;16.20;6.20;;;-4.00;99.90;;;;;;4974876;28;20039;-83
2021/01/31 05:26:52;;;;;;;20.02;8.35;;;-4.10;99.90;;;;;;4991541;28;20030;-83
2021/01/31 05:29:20;;;;;;;;;;;-4.10;99.90;;;;;;4991378;28;20141;-83
2021/01/31 05:32:06;;;;;;;19.50;6.90;;;-4.10;99.90;;;;;;4981906;28;19909;-83
2021/01/31 05:34:35;;;;;;;21.67;7.57;;;-4.10;99.90;;;;;;4988685;28;20032;-83
2021/01/31 05:37:23;;;;;;;17.40;6.17;;;-4.10;99.90;;;;;;4990206;28;20034;-83
2021/01/31 05:40:10;;;;;;;20.63;7.43;;;-4.20;99.90;;;;;;4973110;28;20034;-82
2021/01/31 05:42:41;;;;;;;17.97;6.13;;;-4.30;99.90;;;;;;4992935;28;20042;-83
2021/01/31 05:45:19;;;;;;;18.27;6.50;;;-4.30;99.90;;;;;;4987680;28;20050;-83
2021/01/31 05:47:46;;;;;;;18.30;6.50;;;-4.30;99.90;;;;;;5004893;28;20062;-83
2021/01/31 05:50:40;;;;;;;21.40;6.73;;;-4.30;99.90;;;;;;4974183;28;20026;-83
2021/01/31 05:53:33;;;;;;;19.70;6.80;;;-4.30;99.90;;;;;;4985398;28;20490;-83
2021/01/31 05:56:20;;;;;;;19.20;7.17;;;-4.30;99.90;;;;;;4971854;28;20524;-82
2021/01/31 05:58:46;;;;;;;16.00;6.43;;;-4.30;99.90;;;;;;4988503;28;20106;-83
2021/01/31 06:01:13;;;;;;;17.63;7.40;;;-4.30;99.90;;;;;;4989931;28;20038;-83
2021/01/31 06:03:39;;;;;;;16.70;5.85;;;-4.30;99.90;;;;;;4973975;28;20052;-83
2021/01/31 06:06:19;;;;;;;14.87;6.77;;;-4.40;99.90;;;;;;4989459;28;20037;-84
2021/01/31 06:08:48;;;;;;;15.48;6.00;;;-4.40;99.90;;;;;;4987091;28;20129;-83
2021/01/31 06:11:32;;;;;;;16.70;5.27;;;-4.40;99.90;;;;;;4970991;28;20034;-83
2021/01/31 06:14:19;;;;;;;16.83;5.50;;;-4.50;99.90;;;;;;5006526;28;20030;-83
2021/01/31 06:16:44;;;;;;;17.93;6.20;;;-4.50;99.90;;;;;;4992899;28;20030;-83
2021/01/31 06:19:24;;;;;;;16.17;5.37;;;-4.50;99.90;;;;;;5006076;28;20034;-83
2021/01/31 06:21:49;;;;;;;14.10;4.70;;;-4.60;99.90;;;;;;4986615;28;20034;-83
2021/01/31 06:24:19;;;;;;;19.87;6.07;;;-4.50;99.90;;;;;;4966228;28;20046;-83
2021/01/31 06:26:45;;;;;;;17.42;6.35;;;-4.50;99.90;;;;;;4989369;28;20026;-83
2021/01/31 06:29:19;;;;;;;19.03;6.60;;;-4.50;99.90;;;;;;4984150;28;20046;-83
2021/01/31 06:31:51;;;;;;;14.63;6.00;;;-4.50;99.90;;;;;;4986932;28;20086;-83
2021/01/31 06:34:16;;;;;;;15.37;5.90;;;-4.50;99.90;;;;;;4989556;28;20058;-83
2021/01/31 06:37:30;;;;;;;18.97;6.57;;;-4.60;99.90;;;;;;4972981;28;20025;-83
2021/01/31 06:40:25;;;;;;;17.27;6.87;;;-4.60;99.90;;;;;;4912791;28;20036;-83
2021/01/31 06:43:14;;;;;;;17.33;6.77;;;-4.50;99.90;;;;;;4987042;28;20039;-83
2021/01/31 06:45:45;;;;;;;15.83;6.17;;;-4.60;99.90;;;;;;5003816;28;20022;-83
2021/01/31 06:48:36;;;;;;;17.97;5.97;;;-4.60;99.90;;;;;;4987649;28;20041;-83
2021/01/31 06:51:23;;;;;;;18.57;7.00;;;-4.60;99.90;;;;;;4988969;28;20490;-83
2021/01/31 06:54:38;;;;;;;16.37;5.90;;;-4.60;99.90;;;;;;5005297;28;20435;-83
2021/01/31 06:57:29;;;;;;;16.80;6.43;;;-4.70;99.90;;;;;;4987383;28;20026;-83
2021/01/31 07:00:29;;;;;;;19.00;7.30;;;-4.60;99.90;;;;;;4998592;28;20022;-82
2021/01/31 07:03:04;;;;;;;17.85;7.30;;;-4.70;99.90;;;;;;4986329;28;20039;-83
2021/01/31 07:06:08;;;;;;;17.00;6.10;;;-4.60;99.90;;;;;;4988669;28;20057;-83
2021/01/31 07:09:01;;;;;;;18.43;7.23;;;-4.70;99.90;;;;;;4924775;29;20058;-82
2021/01/31 07:11:42;;;;;;;22.40;7.67;;;-4.70;99.90;;;;;;4924622;29;20028;-82
2021/01/31 07:14:29;;;;;;;21.13;7.57;;;-4.70;99.90;;;;;;4909224;29;20040;-82
2021/01/31 07:17:01;;;;;;;21.30;8.53;;;-4.70;99.90;;;;;;4922296;29;20032;-84
2021/01/31 07:19:41;;;;;;;19.63;7.37;;;-4.70;99.90;;;;;;4894153;29;20060;-84
2021/01/31 07:22:10;;;;;;;18.02;7.45;;;-4.70;99.90;;;;;;4909215;29;20060;-84
2021/01/31 07:24:58;;;;;;;20.07;6.53;;;-4.70;99.90;;;;;;4911270;29;20071;-85
2021/01/31 07:27:42;;;;;;;18.57;7.43;;;-4.70;99.90;;;;;;4925641;29;20035;-84
2021/01/31 07:30:10;;;;;;;17.93;5.33;;;-4.70;99.90;;;;;;4925037;29;20060;-84
2021/01/31 07:33:08;;;;;;;19.97;6.60;;;-4.70;99.90;;;;;;4894514;29;20036;-84
2021/01/31 07:35:53;;;;;;;18.80;6.67;;;-4.80;99.90;;;;;;4923813;29;20059;-84
2021/01/31 07:38:26;;;;;;;18.77;6.63;;;-4.80;99.90;;;;;;4905842;29;20051;-84
2021/01/31 07:40:56;;;;;;;14.57;5.37;;;-4.70;99.90;;;;;;4893160;29;20378;-84
2021/01/31 07:43:24;;;;;;;;;;;-4.70;99.90;;;;;;4894970;29;20100;-84
2021/01/31 07:45:50;;;;;;;16.13;5.57;;;-4.70;99.90;;;;;;4947475;28;19918;-83
2021/01/31 07:48:37;;;;;;;19.77;7.33;;;-4.70;99.90;;;;;;4987705;28;20029;-85
2021/01/31 07:51:05;;;;;;;21.00;6.80;;;-4.70;99.90;;;;;;4988089;28;20026;-87
2021/01/31 07:53:42;;;;;;;19.73;7.17;;;-4.70;99.90;;;;;;5001052;28;20033;-87
2021/01/31 07:56:26;;;;;;;20.33;6.50;;;-4.70;99.90;;;;;;4987038;28;20049;-87
2021/01/31 07:58:54;;;;;;;15.13;6.23;;;-4.70;99.90;;;;;;4985426;28;20111;-87
2021/01/31 08:01:39;;;;;;;17.47;7.50;;;-4.60;99.90;;;;;;4987527;28;20034;-86
2021/01/31 08:04:17;;;;;;;15.47;5.30;;;-4.60;99.90;;;;;;5004106;28;20098;-86
2021/01/31 08:06:51;;;;;;;17.40;6.60;;;-4.50;99.90;;;;;;4999753;28;20049;-86
2021/01/31 08:09:26;;;;;;;17.00;6.70;;;-4.50;99.90;;;;;;4969414;28;20046;-87
2021/01/31 08:12:05;;;;;;;17.10;6.47;;;-4.50;99.90;;;;;;4942480;28;20046;-85
2021/01/31 08:15:05;;;;;;;17.73;5.10;;;-4.50;99.90;;;;;;4961365;28;20077;-85
2021/01/31 08:17:52;;;;;;;16.33;5.53;;;-4.50;99.90;;;;;;5000175;28;20058;-85
2021/01/31 08:20:26;;;;;;;18.07;7.23;;;-4.40;99.90;;;;;;4985608;28;20049;-85
2021/01/31 08:22:52;;;;;;;22.07;7.93;;;-4.30;99.90;;;;;;4944326;28;20102;-84
2021/01/31 08:25:17;;;;;;;19.50;6.73;;;-4.30;99.90;;;;;;4958390;28;20030;-85
2021/01/31 08:27:45;;;;;;;23.17;8.00;;;-4.30;99.90;;;;;;4963662;28;20030;-85
2021/01/31 08:30:22;;;;;;;22.67;8.30;;;-4.20;99.90;;;;;;4955343;28;20030;-85
2021/01/31 08:33:02;;;;;;;18.50;7.03;;;-4.20;99.90;;;;;;4938279;28;20051;-85
2021/01/31 08:35:38;;;;;;;17.63;6.27;;;-4.10;99.90;;;;;;4991405;28;20057;-85
2021/01/31 08:38:33;;;;;;;20.53;7.40;;;-4.10;99.90;;;;;;5002700;28;20034;-85
2021/01/31 08:41:01;;;;;;;18.97;6.77;;;-4.10;99.90;;;;;;4986046;28;20030;-85
2021/01/31 08:43:36;;;;;;;19.33;6.97;;;-4.00;99.90;;;;;;4959488;28;20477;-85
2021/01/31 08:46:20;;;;;;;17.67;6.93;;;-4.00;99.90;;;;;;4984526;28;20035;-85
2021/01/31 08:49:13;;;;;;;16.97;5.33;;;-3.90;99.90;;;;;;4987874;28;20042;-85
2021/01/31 08:51:43;;;;;;;19.80;6.50;;;-3.90;99.90;;;;;;4966984;28;20042;-85
2021/01/31 08:54:19;;;;;;;19.53;7.00;;;-3.80;99.90;;;;;;4972733;28;20401;-85
2021/01/31 08:57:05;;;;;;;20.40;6.55;;;-3.70;99.90;;;;;;4987783;28;20118;-84
2021/01/31 08:59:46;;;;;;;18.17;6.47;;;-3.60;99.90;;;;;;5006377;28;20036;-84
2021/01/31 09:02:18;;;;;;;17.67;6.57;;;-3.50;99.90;;;;;;4994416;28;20034;-85
2021/01/31 09:08:05;;;;;;;18.43;6.20;;;-3.30;99.90;;;;;;4924751;29;20077;-86
2021/01/31 09:10:56;;;;;;;17.60;6.37;;;-3.20;99.90;;;;;;4917800;29;20059;-84
2021/01/31 09:13:34;;;;;;;21.33;7.40;;;-3.10;99.90;;;;;;4922448;29;20127;-85
2021/01/31 09:16:29;;;;;;;17.70;7.10;;;-3.10;99.90;;;;;;4921067;29;20103;-86
2021/01/31 09:19:22;;;;;;;18.80;6.90;;;-3.00;99.90;;;;;;4902907;29;20036;-86
2021/01/31 09:21:53;;;;;;;20.10;7.40;;;-2.90;99.90;;;;;;4906749;29;20100;-85
2021/01/31 09:24:20;;;;;;;24.55;8.88;;;-2.80;99.90;;;;;;4910648;29;20048;-86
2021/01/31 09:26:51;;;;;;;21.85;9.05;;;-2.70;99.90;;;;;;4911212;29;20036;-86
2021/01/31 09:29:21;;;;;;;20.35;7.40;;;-2.60;99.90;;;;;;4923149;29;20122;-83
2021/01/31 09:31:55;;;;;;;21.98;7.72;;;-2.50;99.90;;;;;;4919773;29;20060;-83
2021/01/31 09:34:25;;;;;;;18.48;6.78;;;-2.50;99.90;;;;;;4918725;29;20057;-83
2021/01/31 09:37:13;;;;;;;21.05;8.43;;;-2.40;99.90;;;;;;4921173;29;20035;-84
2021/01/31 09:39:39;;;;;;;18.63;6.97;;;-2.30;99.90;;;;;;4920911;29;20051;-83
2021/01/31 09:42:07;;;;;;;23.25;8.73;;;-2.30;99.90;;;;;;4925918;29;20043;-84
2021/01/31 09:44:35;;;;;;;16.00;6.38;;;-2.30;99.90;;;;;;4938717;28;20034;-83
2021/01/31 09:47:06;;;;;;;13.60;5.10;;;-2.30;99.90;;;;;;5001355;28;20045;-84
2021/01/31 09:49:32;;;;;;;17.45;7.53;;;-2.20;99.90;;;;;;4988304;28;20046;-84
2021/01/31 09:52:10;;;;;;;19.17;8.20;;;-2.30;99.90;;;;;;4985232;28;20050;-85
2021/01/31 09:54:36;;;;;;;24.02;9.38;;;-2.30;99.90;;;;;;4984799;28;20045;-84
2021/01/31 09:57:16;;;;;;;21.92;8.60;;;-2.20;99.90;;;;;;4987655;28;20034;-84
2021/01/31 09:59:43;;;;;;;15.57;6.70;;;-2.10;99.90;;;;;;5002763;28;20489;-84
2021/01/31 10:02:20;;;;;;;22.15;8.20;;;-2.10;99.90;;;;;;4913661;28;20332;-84
2021/01/31 10:04:56;;;;;;;19.63;7.68;;;-2.10;99.90;;;;;;4985889;28;20034;-83
2021/01/31 10:07:41;;;;;;;18.63;7.55;;;-2.00;99.90;;;;;;4951692;23;20048;-84
2021/01/31 10:10:36;;;;;;;19.80;7.63;;;-2.00;99.90;;;;;;4915253;28;20074;-84
2021/01/31 10:13:22;;;;;;;17.92;7.55;;;-1.90;99.90;;;;;;4966299;29;20103;-84
2021/01/31 10:15:58;;;;;;;21.17;8.05;;;-1.80;99.90;;;;;;4983852;28;20139;-84
2021/01/31 10:18:39;;;;;;;13.95;5.85;;;-1.60;99.90;;;;;;4965993;29;20094;-85
2021/01/31 10:21:24;;;;;;;21.35;8.13;;;-1.60;99.90;;;;;;4964057;29;20039;-84
2021/01/31 10:24:02;;;;;;;17.77;7.20;;;-1.40;99.90;;;;;;4976735;28;20046;-84
2021/01/31 10:26:28;;;;;;;14.85;6.60;;;-1.30;99.90;;;;;;4981216;28;20027;-84
2021/01/31 10:29:04;;;;;;;18.60;8.27;;;-1.40;99.90;;;;;;4981254;28;20035;-84
2021/01/31 10:31:33;;;;;;;19.75;8.18;;;-1.40;99.90;;;;;;4980219;28;20032;-84
2021/01/31 10:34:04;;;;;;;17.20;7.03;;;-1.30;99.90;;;;;;4982124;28;20063;-84
2021/01/31 10:36:32;;;;;;;16.40;6.70;;;-1.30;99.90;;;;;;4983059;28;20346;-85
2021/01/31 10:38:59;;;;;;;18.25;7.35;;;-1.40;99.90;;;;;;4962115;29;20039;-85
2021/01/31 10:41:25;;;;;;;18.67;7.32;;;-1.40;99.90;;;;;;4941086;28;20056;-85
2021/01/31 10:44:02;;;;;;;16.73;8.07;;;-1.40;99.90;;;;;;4927474;29;20115;-84
2021/01/31 10:46:29;;;;;;;19.52;7.82;;;-1.20;99.90;;;;;;4928634;29;20082;-85
2021/01/31 10:48:55;;;;;;;14.25;6.50;;;-1.10;99.90;;;;;;4929179;29;20092;-84
2021/01/31 10:51:21;;;;;;;16.63;7.07;;;-1.00;99.90;;;;;;4928833;29;20031;-84
2021/01/31 10:53:46;;;;;;;18.13;7.55;;;-0.90;99.90;;;;;;4928983;29;20134;-84
2021/01/31 10:56:12;;;;;;;18.45;7.00;;;-0.90;99.90;;;;;;4927773;29;20119;-84
2021/01/31 10:58:39;;;;;;;19.45;8.13;;;-0.90;99.90;;;;;;4928928;29;20087;-84
2021/01/31 11:01:05;;;;;;;14.77;6.88;;;-0.80;99.90;;;;;;4928655;29;20047;-84
2021/01/31 11:03:31;;;;;;;16.90;6.70;;;-0.80;99.90;;;;;;4942417;29;20210;-85
2021/01/31 11:05:57;;;;;;;16.58;6.07;;;-0.80;99.90;;;;;;4928935;29;20578;-84
2021/01/31 11:08:24;;;;;;;13.98;5.22;;;-0.70;99.90;;;;;;4928411;29;20460;-84
2021/01/31 11:10:50;;;;;;;14.77;6.88;;;-0.70;99.90;;;;;;4928145;29;20118;-84
2021/01/31 11:13:16;;;;;;;15.82;6.20;;;-0.60;99.90;;;;;;4944719;29;20076;-84
2021/01/31 11:15:41;;;;;;;16.75;6.65;;;-0.50;99.90;;;;;;4929835;29;20051;-84
2021/01/31 11:18:07;;;;;;;13.68;5.68;;;-0.40;99.90;;;;;;4927166;29;20035;-83
2021/01/31 11:20:33;;;;;;;11.75;5.55;;;-0.30;99.90;;;;;;4949866;28;20039;-84
2021/01/31 11:22:58;;;;;;;15.20;6.07;;;-0.20;99.90;;;;;;4981905;28;20448;-84
2021/01/31 11:25:24;;;;;;;17.27;7.07;;;-0.30;99.90;;;;;;4962693;28;20030;-84
2021/01/31 11:27:50;;;;;;;13.80;5.55;;;-0.30;99.90;;;;;;4981714;28;20027;-84
2021/01/31 11:30:16;;;;;;;14.50;6.18;;;-0.20;99.90;;;;;;4966870;28;20471;-84
2021/01/31 11:32:41;;;;;;;14.32;6.35;;;-0.30;99.90;;;;;;4981433;28;20055;-83
2021/01/31 11:35:08;;;;;;;14.80;6.82;;;-0.20;99.90;;;;;;4981282;28;20023;-84
2021/01/31 11:37:34;;;;;;;16.67;7.40;;;-0.20;99.90;;;;;;4981880;28;20031;-84
2021/01/31 11:39:59;;;;;;;13.27;5.95;;;-0.10;99.90;;;;;;4981398;28;20051;-84
2021/01/31 11:42:25;;;;;;;14.65;6.40;;;-0.10;99.90;;;;;;4966423;29;20032;-83
2021/01/31 11:44:51;;;;;;;14.75;6.00;;;0.00;99.90;;;;;;4981255;28;20085;-84
2021/01/31 11:47:16;;;;;;;13.05;5.35;;;0.20;99.90;;;;;;4981439;28;20030;-84
2021/01/31 11:49:42;;;;;;;14.88;5.68;;;0.30;99.90;;;;;;4981490;28;20030;-84
2021/01/31 11:52:07;;;;;;;13.25;5.68;;;0.40;99.90;;;;;;4981193;28;20039;-84
2021/01/31 11:54:33;;;;;;;15.07;6.57;;;0.40;99.90;;;;;;4981324;28;20031;-84
2021/01/31 11:56:59;;;;;;;13.85;6.22;;;0.50;99.90;;;;;;4981246;28;20034;-84
2021/01/31 11:59:25;;;;;;;11.52;4.63;;;0.60;99.90;;;;;;4981325;28;20170;-84
2021/01/31 12:01:50;;;;;;;14.05;5.70;;;0.60;99.90;;;;;;4981302;28;20070;-84
2021/01/31 12:04:16;;;;;;;13.18;6.43;;;0.60;99.90;;;;;;4966405;29;20031;-84
2021/01/31 12:06:42;;;;;;;15.30;6.43;;;0.60;99.90;;;;;;4981060;28;20024;-85
2021/01/31 12:09:08;;;;;;;12.93;5.80;;;0.70;99.90;;;;;;4981046;28;20046;-85
2021/01/31 12:11:33;;;;;;;14.18;6.55;;;0.70;99.90;;;;;;4964969;29;20031;-85
2021/01/31 12:13:59;;;;;;;10.88;4.57;;;0.80;99.90;;;;;;4981112;28;20031;-84
2021/01/31 12:16:25;;;;;;;12.10;5.32;;;0.90;99.90;;;;;;4982045;28;20043;-84
2021/01/31 12:18:51;;;;;;;11.15;5.22;;;1.00;99.90;;;;;;4981007;28;20031;-85
2021/01/31 12:21:17;;;;;;;13.98;6.60;;;1.00;99.90;;;;;;4981096;28;20502;-85
2021/01/31 12:23:43;;;;;;;13.73;6.22;;;1.00;99.90;;;;;;4981089;28;20118;-85
2021/01/31 12:26:09;;;;;;;12.30;5.90;;;1.00;99.90;;;;;;4904495;28;20507;-85
2021/01/31 12:29:00;;;;;;;;;;;;;;;;;;;;;
2021/01/31 12:31:46;;;;;;;13.48;6.10;;;1.10;99.90;;;;;;4968788;28;20165;-86
2021/01/31 12:34:12;;;;;;;13.20;6.43;;;1.30;99.90;;;;;;4967448;29;20038;-86
2021/01/31 12:36:39;;;;;;;13.55;7.05;;;1.30;99.90;;;;;;4983740;28;20027;-86
2021/01/31 12:39:05;;;;;;;13.10;5.63;;;1.40;99.90;;;;;;4984369;28;20047;-86
2021/01/31 12:41:31;;;;;;;11.88;5.43;;;1.40;99.90;;;;;;4976490;28;20031;-89
2021/01/31 12:43:56;;;;;;;11.95;5.55;;;1.30;99.90;;;;;;4935865;28;20397;-86
2021/01/31 12:46:22;;;;;;;14.18;6.07;;;1.30;99.90;;;;;;4968230;29;20127;-86
2021/01/31 12:48:49;;;;;;;13.68;5.80;;;1.30;99.90;;;;;;4968145;29;20046;-86
2021/01/31 12:51:15;;;;;;;10.10;4.90;;;1.40;99.90;;;;;;4984541;28;20177;-86
2021/01/31 12:53:40;;;;;;;11.85;5.10;;;1.50;99.90;;;;;;4970705;28;20563;-86
2021/01/31 12:56:06;;;;;;;10.35;5.05;;;1.50;99.90;;;;;;4967764;29;20077;-86
2021/01/31 12:58:33;;;;;;;12.05;5.38;;;1.50;99.90;;;;;;4968239;29;20039;-87
2021/01/31 13:00:59;;;;;;;10.65;4.85;;;1.60;99.90;;;;;;4968088;29;20023;-87
2021/01/31 13:03:25;;;;;;;12.02;6.43;;;1.60;99.90;;;;;;4967054;29;20058;-86
2021/01/31 13:05:50;;;;;;;11.45;5.80;;;1.70;99.90;;;;;;4968197;29;20083;-86
2021/01/31 13:08:17;;;;;;;12.68;5.57;;;1.70;99.90;;;;;;4982424;28;20174;-86
2021/01/31 13:10:43;;;;;;;11.00;5.70;;;1.70;99.90;;;;;;4983239;28;20062;-87
2021/01/31 13:13:08;;;;;;;10.60;6.32;;;1.70;99.90;;;;;;4983442;28;20038;-86
2021/01/31 13:15:34;;;;;;;13.25;6.80;;;1.60;99.90;;;;;;4969168;28;20065;-86